sensor_id;sensor_type;location;lat;lon;timestamp;pressure;altitude;pressure_sealevel;temperature;humidity
64362;BME280;50685;53.346;-6.296;2023-05-25T00:02:10;102954.34;;;14.93;72.56
64362;BME280;50685;53.346;-6.296;2023-05-25T00:04:42;102957.03;;;14.96;72.69
64362;BME280;50685;53.346;-6.296;2023-05-25T00:07:15;102935.63;;;14.84;72.77
64362;BME280;50685;53.346;-6.296;2023-05-25T00:09:41;102934.75;;;14.85;72.71
64362;BME280;50685;53.346;-6.296;2023-05-25T00:12:14;102955.25;;;15.03;72.54
64362;BME280;50685;53.346;-6.296;2023-05-25T00:14:40;102955.25;;;14.97;72.44
64362;BME280;50685;53.346;-6.296;2023-05-25T00:17:06;102935.59;;;14.81;73.04
64362;BME280;50685;53.346;-6.296;2023-05-25T00:19:34;102926.69;;;14.78;73.10
64362;BME280;50685;53.346;-6.296;2023-05-25T00:22:00;102942.72;;;14.82;73.38
64362;BME280;50685;53.346;-6.296;2023-05-25T00:24:29;102952.53;;;14.81;73.87
64362;BME280;50685;53.346;-6.296;2023-05-25T00:26:59;102923.91;;;14.58;73.85
64362;BME280;50685;53.346;-6.296;2023-05-25T00:29:27;102968.56;;;14.86;73.77
64362;BME280;50685;53.346;-6.296;2023-05-25T00:34:47;102931.03;;;14.58;73.57
64362;BME280;50685;53.346;-6.296;2023-05-25T00:37:24;102980.13;;;14.82;73.55
64362;BME280;50685;53.346;-6.296;2023-05-25T00:39:52;102934.56;;;14.57;73.17
64362;BME280;50685;53.346;-6.296;2023-05-25T00:42:18;102961.38;;;14.69;73.62
64362;BME280;50685;53.346;-6.296;2023-05-25T00:45:04;102943.44;;;14.51;73.65
64362;BME280;50685;53.346;-6.296;2023-05-25T00:47:34;102934.53;;;14.49;73.49
64362;BME280;50685;53.346;-6.296;2023-05-25T00:50:07;102942.50;;;14.41;73.69
64362;BME280;50685;53.346;-6.296;2023-05-25T00:52:34;102950.56;;;14.51;73.38
64362;BME280;50685;53.346;-6.296;2023-05-25T00:55:05;102984.53;;;14.70;73.42
64362;BME280;50685;53.346;-6.296;2023-05-25T00:57:39;102938.94;;;14.42;73.34
64362;BME280;50685;53.346;-6.296;2023-05-25T01:00:11;102970.19;;;14.60;73.26
64362;BME280;50685;53.346;-6.296;2023-05-25T01:02:50;102972.94;;;14.65;72.98
64362;BME280;50685;53.346;-6.296;2023-05-25T01:05:18;102978.31;;;14.74;72.99
64362;BME280;50685;53.346;-6.296;2023-05-25T01:07:46;102972.94;;;14.65;72.97
64362;BME280;50685;53.346;-6.296;2023-05-25T01:10:23;102963.06;;;14.59;72.58
64362;BME280;50685;53.346;-6.296;2023-05-25T01:12:50;102936.28;;;14.44;71.79
64362;BME280;50685;53.346;-6.296;2023-05-25T01:15:19;102986.28;;;14.67;72.32
64362;BME280;50685;53.346;-6.296;2023-05-25T01:17:45;102941.56;;;14.33;72.30
64362;BME280;50685;53.346;-6.296;2023-05-25T01:20:10;102940.66;;;14.31;72.38
64362;BME280;50685;53.346;-6.296;2023-05-25T01:22:50;102954.03;;;14.39;72.37
64362;BME280;50685;53.346;-6.296;2023-05-25T01:25:22;102947.72;;;14.23;72.95
64362;BME280;50685;53.346;-6.296;2023-05-25T01:30:25;102941.50;;;14.21;72.67
64362;BME280;50685;53.346;-6.296;2023-05-25T01:32:55;102983.50;;;14.50;72.71
64362;BME280;50685;53.346;-6.296;2023-05-25T01:35:35;103001.28;;;14.49;72.88
64362;BME280;50685;53.346;-6.296;2023-05-25T01:38:04;102984.22;;;14.25;73.72
64362;BME280;50685;53.346;-6.296;2023-05-25T01:40:30;102979.75;;;14.23;73.53
64362;BME280;50685;53.346;-6.296;2023-05-25T01:43:10;102978.75;;;14.08;74.24
64362;BME280;50685;53.346;-6.296;2023-05-25T01:45:36;102954.59;;;13.90;74.21
64362;BME280;50685;53.346;-6.296;2023-05-25T01:50:53;103005.44;;;14.08;74.97
64362;BME280;50685;53.346;-6.296;2023-05-25T01:53:26;103005.47;;;14.11;75.00
64362;BME280;50685;53.346;-6.296;2023-05-25T01:55:58;102980.44;;;13.94;74.95
64362;BME280;50685;53.346;-6.296;2023-05-25T01:58:26;102971.41;;;13.78;75.70
64362;BME280;50685;53.346;-6.296;2023-05-25T02:00:55;102974.06;;;13.79;75.66
64362;BME280;50685;53.346;-6.296;2023-05-25T02:03:25;103010.69;;;13.97;75.66
64362;BME280;50685;53.346;-6.296;2023-05-25T02:05:50;102957.06;;;13.66;75.36
64362;BME280;50685;53.346;-6.296;2023-05-25T02:08:16;102975.81;;;13.74;76.08
64362;BME280;50685;53.346;-6.296;2023-05-25T02:10:42;103017.66;;;13.81;76.17
64362;BME280;50685;53.346;-6.296;2023-05-25T02:13:07;102999.75;;;13.68;76.14
64362;BME280;50685;53.346;-6.296;2023-05-25T02:15:33;103017.53;;;13.69;76.60
64362;BME280;50685;53.346;-6.296;2023-05-25T02:17:58;103010.38;;;13.66;76.83
64362;BME280;50685;53.346;-6.296;2023-05-25T02:20:25;102959.38;;;13.32;77.30
64362;BME280;50685;53.346;-6.296;2023-05-25T02:22:51;102971.69;;;13.23;77.94
64362;BME280;50685;53.346;-6.296;2023-05-25T02:25:16;103025.38;;;13.54;77.54
64362;BME280;50685;53.346;-6.296;2023-05-25T02:27:54;103034.22;;;13.49;77.19
64362;BME280;50685;53.346;-6.296;2023-05-25T02:30:19;102979.59;;;13.15;77.98
64362;BME280;50685;53.346;-6.296;2023-05-25T02:32:47;102984.84;;;13.09;78.27
64362;BME280;50685;53.346;-6.296;2023-05-25T02:35:19;103005.34;;;13.16;78.49
64362;BME280;50685;53.346;-6.296;2023-05-25T02:37:44;103033.88;;;13.25;78.76
64362;BME280;50685;53.346;-6.296;2023-05-25T02:40:13;102977.50;;;12.89;78.94
64362;BME280;50685;53.346;-6.296;2023-05-25T02:42:41;103037.38;;;13.19;78.86
64362;BME280;50685;53.346;-6.296;2023-05-25T02:45:17;102997.06;;;12.93;79.03
64362;BME280;50685;53.346;-6.296;2023-05-25T02:47:42;102998.00;;;12.95;78.83
64362;BME280;50685;53.346;-6.296;2023-05-25T02:50:08;103026.59;;;13.08;78.60
64362;BME280;50685;53.346;-6.296;2023-05-25T02:52:34;102964.78;;;12.65;78.40
64362;BME280;50685;53.346;-6.296;2023-05-25T02:55:02;102994.94;;;12.67;78.50
64362;BME280;50685;53.346;-6.296;2023-05-25T02:57:30;102985.03;;;12.55;78.29
64362;BME280;50685;53.346;-6.296;2023-05-25T02:59:55;103037.84;;;12.87;78.24
64362;BME280;50685;53.346;-6.296;2023-05-25T03:02:23;103003.88;;;12.69;78.12
64362;BME280;50685;53.346;-6.296;2023-05-25T03:04:50;102989.53;;;12.58;78.74
64362;BME280;50685;53.346;-6.296;2023-05-25T03:07:18;103031.44;;;12.73;78.98
64362;BME280;50685;53.346;-6.296;2023-05-25T03:09:49;102996.50;;;12.51;78.89
64362;BME280;50685;53.346;-6.296;2023-05-25T03:12:15;103056.44;;;12.82;79.17
64362;BME280;50685;53.346;-6.296;2023-05-25T03:17:56;103061.81;;;12.85;78.33
64362;BME280;50685;53.346;-6.296;2023-05-25T03:20:27;103052.03;;;12.84;78.26
64362;BME280;50685;53.346;-6.296;2023-05-25T03:22:59;103017.78;;;12.51;78.52
64362;BME280;50685;53.346;-6.296;2023-05-25T03:25:30;103019.47;;;12.43;78.21
64362;BME280;50685;53.346;-6.296;2023-05-25T03:27:58;103030.97;;;12.40;78.00
64362;BME280;50685;53.346;-6.296;2023-05-25T03:30:24;103064.91;;;12.57;77.70
64362;BME280;50685;53.346;-6.296;2023-05-25T03:32:50;103033.53;;;12.35;77.67
64362;BME280;50685;53.346;-6.296;2023-05-25T03:35:16;103031.69;;;12.31;77.46
64362;BME280;50685;53.346;-6.296;2023-05-25T03:37:42;103061.31;;;12.54;76.98
64362;BME280;50685;53.346;-6.296;2023-05-25T03:40:07;103031.75;;;12.34;77.06
64362;BME280;50685;53.346;-6.296;2023-05-25T03:42:42;103040.59;;;12.33;76.76
64362;BME280;50685;53.346;-6.296;2023-05-25T03:45:10;103057.63;;;12.45;76.45
64362;BME280;50685;53.346;-6.296;2023-05-25T03:47:41;103068.34;;;12.48;76.62
64362;BME280;50685;53.346;-6.296;2023-05-25T03:50:07;103036.97;;;12.27;76.52
64362;BME280;50685;53.346;-6.296;2023-05-25T03:52:33;103076.16;;;12.38;77.29
64362;BME280;50685;53.346;-6.296;2023-05-25T03:54:58;103079.63;;;12.33;77.43
64362;BME280;50685;53.346;-6.296;2023-05-25T03:57:26;103078.63;;;12.28;77.80
64362;BME280;50685;53.346;-6.296;2023-05-25T03:59:55;103029.38;;;11.99;77.64
64362;BME280;50685;53.346;-6.296;2023-05-25T04:02:21;103067.72;;;12.11;78.28
64362;BME280;50685;53.346;-6.296;2023-05-25T04:04:46;103060.53;;;12.05;78.29
64362;BME280;50685;53.346;-6.296;2023-05-25T04:07:14;103051.50;;;11.97;78.35
64362;BME280;50685;53.346;-6.296;2023-05-25T04:09:42;103029.13;;;11.87;78.65
64362;BME280;50685;53.346;-6.296;2023-05-25T04:12:16;103077.31;;;12.02;79.29
64362;BME280;50685;53.346;-6.296;2023-05-25T04:14:42;103035.06;;;11.70;79.08
64362;BME280;50685;53.346;-6.296;2023-05-25T04:17:07;103045.81;;;11.78;79.34
64362;BME280;50685;53.346;-6.296;2023-05-25T04:19:33;103055.63;;;11.81;79.89
64362;BME280;50685;53.346;-6.296;2023-05-25T04:22:14;103032.28;;;11.64;79.68
64362;BME280;50685;53.346;-6.296;2023-05-25T04:24:40;103049.31;;;11.76;79.85
64362;BME280;50685;53.346;-6.296;2023-05-25T04:27:06;103070.84;;;11.89;79.84
64362;BME280;50685;53.346;-6.296;2023-05-25T04:29:33;103097.50;;;11.93;80.06
64362;BME280;50685;53.346;-6.296;2023-05-25T04:31:59;103065.06;;;11.65;80.61
64362;BME280;50685;53.346;-6.296;2023-05-25T04:34:27;103095.38;;;11.74;81.65
64362;BME280;50685;53.346;-6.296;2023-05-25T04:36:54;103106.84;;;11.72;82.09
64362;BME280;50685;53.346;-6.296;2023-05-25T04:39:25;103067.47;;;11.52;82.12
64362;BME280;50685;53.346;-6.296;2023-05-25T04:41:50;103065.53;;;11.44;82.60
64362;BME280;50685;53.346;-6.296;2023-05-25T04:44:17;103049.25;;;11.27;82.83
64362;BME280;50685;53.346;-6.296;2023-05-25T04:46:49;103110.97;;;11.57;83.11
64362;BME280;50685;53.346;-6.296;2023-05-25T04:49:15;103079.41;;;11.29;83.27
64362;BME280;50685;53.346;-6.296;2023-05-25T04:51:49;103062.28;;;11.16;83.33
64362;BME280;50685;53.346;-6.296;2023-05-25T04:54:19;103071.22;;;11.19;84.05
64362;BME280;50685;53.346;-6.296;2023-05-25T04:56:47;103110.59;;;11.39;83.81
64362;BME280;50685;53.346;-6.296;2023-05-25T04:59:21;103072.03;;;11.15;83.48
64362;BME280;50685;53.346;-6.296;2023-05-25T05:01:47;103084.38;;;11.13;83.55
64362;BME280;50685;53.346;-6.296;2023-05-25T05:04:12;103121.22;;;11.39;83.12
64362;BME280;50685;53.346;-6.296;2023-05-25T05:06:43;103077.59;;;11.26;82.53
64362;BME280;50685;53.346;-6.296;2023-05-25T05:09:12;103064.06;;;11.15;82.34
64362;BME280;50685;53.346;-6.296;2023-05-25T05:11:41;103106.19;;;11.39;82.01
64362;BME280;50685;53.346;-6.296;2023-05-25T05:14:06;103088.25;;;11.29;81.42
64362;BME280;50685;53.346;-6.296;2023-05-25T05:16:32;103065.88;;;11.18;81.52
64362;BME280;50685;53.346;-6.296;2023-05-25T05:19:02;103123.16;;;11.46;81.25
64362;BME280;50685;53.346;-6.296;2023-05-25T05:21:27;103117.81;;;11.45;81.08
64362;BME280;50685;53.346;-6.296;2023-05-25T05:23:53;103062.13;;;11.08;80.73
64362;BME280;50685;53.346;-6.296;2023-05-25T05:26:26;103133.00;;;11.50;80.35
64362;BME280;50685;53.346;-6.296;2023-05-25T05:28:55;103140.03;;;11.47;80.07
64362;BME280;50685;53.346;-6.296;2023-05-25T05:31:21;103116.88;;;11.43;80.48
64362;BME280;50685;53.346;-6.296;2023-05-25T05:33:54;103094.47;;;11.30;80.00
64362;BME280;50685;53.346;-6.296;2023-05-25T05:36:24;103092.72;;;11.32;79.95
64362;BME280;50685;53.346;-6.296;2023-05-25T05:38:50;103089.09;;;11.27;79.79
64362;BME280;50685;53.346;-6.296;2023-05-25T05:41:15;103074.84;;;11.23;79.75
64362;BME280;50685;53.346;-6.296;2023-05-25T05:43:41;103126.16;;;11.62;79.39
64362;BME280;50685;53.346;-6.296;2023-05-25T05:46:11;103082.38;;;11.44;78.90
64362;BME280;50685;53.346;-6.296;2023-05-25T05:48:39;103076.25;;;11.48;78.20
64362;BME280;50685;53.346;-6.296;2023-05-25T05:51:06;103084.97;;;11.41;77.95
64362;BME280;50685;53.346;-6.296;2023-05-25T05:53:34;103130.78;;;11.73;78.38
64362;BME280;50685;53.346;-6.296;2023-05-25T05:56:03;103085.28;;;11.56;78.18
64362;BME280;50685;53.346;-6.296;2023-05-25T05:58:31;103137.38;;;11.91;77.38
64362;BME280;50685;53.346;-6.296;2023-05-25T06:01:06;103101.59;;;11.75;76.88
64362;BME280;50685;53.346;-6.296;2023-05-25T06:03:32;103135.59;;;11.92;76.93
64362;BME280;50685;53.346;-6.296;2023-05-25T06:06:04;103129.44;;;11.96;76.72
64362;BME280;50685;53.346;-6.296;2023-05-25T06:08:30;103082.88;;;11.69;76.48
64362;BME280;50685;53.346;-6.296;2023-05-25T06:10:55;103083.75;;;11.68;76.17
64362;BME280;50685;53.346;-6.296;2023-05-25T06:13:21;103101.00;;;11.90;76.22
64362;BME280;50685;53.346;-6.296;2023-05-25T06:15:46;103123.53;;;12.09;75.82
64362;BME280;50685;53.346;-6.296;2023-05-25T06:18:14;103098.63;;;12.05;74.84
64362;BME280;50685;53.346;-6.296;2023-05-25T06:21:00;103090.09;;;12.24;74.28
64362;BME280;50685;53.346;-6.296;2023-05-25T06:24:04;103091.03;;;12.24;73.29
64362;BME280;50685;53.346;-6.296;2023-05-25T06:26:43;103085.91;;;12.36;73.49
64362;BME280;50685;53.346;-6.296;2023-05-25T07:50:21;103122.31;;;16.24;57.91
64362;BME280;50685;53.346;-6.296;2023-05-25T07:56:28;103169.66;;;16.65;55.87
64362;BME280;50685;53.346;-6.296;2023-05-25T08:08:45;103160.69;;;17.14;52.30
64362;BME280;50685;53.346;-6.296;2023-05-25T08:11:11;103134.78;;;17.20;52.15
64362;BME280;50685;53.346;-6.296;2023-05-25T08:13:39;103165.06;;;17.45;51.97
64362;BME280;50685;53.346;-6.296;2023-05-25T08:16:04;103137.34;;;17.49;51.36
64362;BME280;50685;53.346;-6.296;2023-05-25T08:22:17;103111.22;;;17.85;49.30
64362;BME280;50685;53.346;-6.296;2023-05-25T08:25:15;103121.66;;;18.32;47.75
64362;BME280;50685;53.346;-6.296;2023-05-25T08:28:10;103158.19;;;18.57;45.48
64362;BME280;50685;53.346;-6.296;2023-05-25T08:30:46;103158.94;;;18.73;44.53
64362;BME280;50685;53.346;-6.296;2023-05-25T08:33:11;103124.41;;;18.22;42.58
64362;BME280;50685;53.346;-6.296;2023-05-25T08:35:37;103164.59;;;18.38;43.23
64362;BME280;50685;53.346;-6.296;2023-05-25T08:38:07;103123.47;;;18.29;43.77
64362;BME280;50685;53.346;-6.296;2023-05-25T08:40:32;103138.53;;;18.49;43.62
64362;BME280;50685;53.346;-6.296;2023-05-25T08:42:58;103166.97;;;18.78;42.08
64362;BME280;50685;53.346;-6.296;2023-05-25T08:45:24;103168.66;;;18.88;42.06
64362;BME280;50685;53.346;-6.296;2023-05-25T08:47:56;103110.69;;;18.56;41.02
64362;BME280;50685;53.346;-6.296;2023-05-25T08:50:32;103126.53;;;18.87;42.06
64362;BME280;50685;53.346;-6.296;2023-05-25T08:53:01;103128.84;;;19.24;41.11
64362;BME280;50685;53.346;-6.296;2023-05-25T08:55:28;103110.88;;;19.30;40.03
64362;BME280;50685;53.346;-6.296;2023-05-25T08:58:16;103169.38;;;19.85;40.45
64362;BME280;50685;53.346;-6.296;2023-05-25T09:00:50;103153.09;;;19.95;39.62
64362;BME280;50685;53.346;-6.296;2023-05-25T09:03:18;103167.00;;;20.26;39.40
64362;BME280;50685;53.346;-6.296;2023-05-25T09:05:44;103141.88;;;20.24;38.90
64362;BME280;50685;53.346;-6.296;2023-05-25T09:08:10;103121.66;;;19.95;37.32
64362;BME280;50685;53.346;-6.296;2023-05-25T09:10:37;103163.75;;;20.04;38.50
64362;BME280;50685;53.346;-6.296;2023-05-25T09:13:03;103112.84;;;19.81;37.29
64362;BME280;50685;53.346;-6.296;2023-05-25T09:15:30;103130.66;;;19.94;37.71
64362;BME280;50685;53.346;-6.296;2023-05-25T09:17:56;103145.72;;;20.08;37.55
64362;BME280;50685;53.346;-6.296;2023-05-25T09:20:25;103141.00;;;20.23;37.47
64362;BME280;50685;53.346;-6.296;2023-05-25T09:22:58;103139.47;;;20.62;37.49
64362;BME280;50685;53.346;-6.296;2023-05-25T09:25:25;103133.75;;;20.80;36.52
64362;BME280;50685;53.346;-6.296;2023-05-25T09:27:52;103110.16;;;20.92;36.27
64362;BME280;50685;53.346;-6.296;2023-05-25T09:30:18;103120.41;;;21.19;35.97
64362;BME280;50685;53.346;-6.296;2023-05-25T09:32:43;103138.47;;;21.61;35.39
64362;BME280;50685;53.346;-6.296;2023-05-25T09:35:13;103128.22;;;21.77;35.04
64362;BME280;50685;53.346;-6.296;2023-05-25T09:37:40;103127.88;;;21.50;35.13
64362;BME280;50685;53.346;-6.296;2023-05-25T09:40:10;103129.13;;;21.76;34.14
64362;BME280;50685;53.346;-6.296;2023-05-25T09:42:36;103143.19;;;21.92;34.54
64362;BME280;50685;53.346;-6.296;2023-05-25T09:45:02;103123.81;;;22.12;34.71
64362;BME280;50685;53.346;-6.296;2023-05-25T09:47:28;103124.03;;;22.41;33.25
64362;BME280;50685;53.346;-6.296;2023-05-25T09:49:57;103154.31;;;22.55;32.58
64362;BME280;50685;53.346;-6.296;2023-05-25T09:52:30;103120.22;;;22.50;31.98
64362;BME280;50685;53.346;-6.296;2023-05-25T09:55:14;103152.81;;;22.78;32.03
64362;BME280;50685;53.346;-6.296;2023-05-25T09:57:45;103091.78;;;22.31;31.47
64362;BME280;50685;53.346;-6.296;2023-05-25T10:00:29;103118.81;;;22.33;32.38
64362;BME280;50685;53.346;-6.296;2023-05-25T10:02:55;103139.56;;;22.67;31.40
64362;BME280;50685;53.346;-6.296;2023-05-25T10:05:20;103096.22;;;22.70;30.53
64362;BME280;50685;53.346;-6.296;2023-05-25T10:11:09;103121.09;;;22.83;29.82
64362;BME280;50685;53.346;-6.296;2023-05-25T10:13:36;103134.34;;;22.94;29.55
64362;BME280;50685;53.346;-6.296;2023-05-25T10:16:07;103148.66;;;23.32;28.91
64362;BME280;50685;53.346;-6.296;2023-05-25T10:18:35;103115.81;;;23.11;27.68
64362;BME280;50685;53.346;-6.296;2023-05-25T10:21:06;103103.47;;;23.01;28.38
64362;BME280;50685;53.346;-6.296;2023-05-25T10:24:05;103093.94;;;23.21;27.66
64362;BME280;50685;53.346;-6.296;2023-05-25T10:26:35;103125.16;;;23.94;27.79
64362;BME280;50685;53.346;-6.296;2023-05-25T10:29:04;103124.41;;;24.16;27.65
64362;BME280;50685;53.346;-6.296;2023-05-25T10:31:31;103153.44;;;24.41;27.46
64362;BME280;50685;53.346;-6.296;2023-05-25T10:33:59;103095.16;;;23.99;26.84
64362;BME280;50685;53.346;-6.296;2023-05-25T10:36:26;103106.63;;;24.07;27.65
64362;BME280;50685;53.346;-6.296;2023-05-25T10:38:51;103157.47;;;24.29;27.63
64362;BME280;50685;53.346;-6.296;2023-05-25T10:41:18;103118.09;;;23.87;28.01
64362;BME280;50685;53.346;-6.296;2023-05-25T10:43:45;103136.19;;;24.16;27.82
64362;BME280;50685;53.346;-6.296;2023-05-25T10:46:14;103135.91;;;24.24;27.75
64362;BME280;50685;53.346;-6.296;2023-05-25T10:48:49;103114.13;;;23.99;27.25
64362;BME280;50685;53.346;-6.296;2023-05-25T10:51:19;103126.19;;;24.17;27.52
64362;BME280;50685;53.346;-6.296;2023-05-25T10:53:57;103111.59;;;23.94;26.17
64362;BME280;50685;53.346;-6.296;2023-05-25T10:56:24;103153.53;;;24.37;26.39
64362;BME280;50685;53.346;-6.296;2023-05-25T10:58:51;103101.78;;;23.60;27.55
64362;BME280;50685;53.346;-6.296;2023-05-25T11:29:42;103096.00;;;24.28;25.38
64362;BME280;50685;53.346;-6.296;2023-05-25T11:32:12;103129.44;;;24.82;24.85
64362;BME280;50685;53.346;-6.296;2023-05-25T11:34:43;103059.78;;;24.81;24.84
64362;BME280;50685;53.346;-6.296;2023-05-25T11:37:18;103061.13;;;24.94;24.04
64362;BME280;50685;53.346;-6.296;2023-05-25T11:39:52;103093.00;;;25.13;24.66
64362;BME280;50685;53.346;-6.296;2023-05-25T11:42:23;103091.81;;;25.20;24.86
64362;BME280;50685;53.346;-6.296;2023-05-25T11:44:49;103088.25;;;24.94;24.93
64362;BME280;50685;53.346;-6.296;2023-05-25T11:47:15;103073.06;;;25.14;24.67
64362;BME280;50685;53.346;-6.296;2023-05-25T11:49:47;103074.22;;;25.30;25.12
64362;BME280;50685;53.346;-6.296;2023-05-25T11:52:15;103069.63;;;25.32;25.87
64362;BME280;50685;53.346;-6.296;2023-05-25T11:54:43;103079.38;;;25.62;25.50
64362;BME280;50685;53.346;-6.296;2023-05-25T11:57:16;103105.19;;;26.18;25.14
64362;BME280;50685;53.346;-6.296;2023-05-25T11:59:55;103057.19;;;25.95;23.64
64362;BME280;50685;53.346;-6.296;2023-05-25T12:02:24;103081.75;;;26.16;24.16
64362;BME280;50685;53.346;-6.296;2023-05-25T12:04:54;103112.28;;;26.22;24.01
64362;BME280;50685;53.346;-6.296;2023-05-25T12:07:26;103090.16;;;26.09;24.16
64362;BME280;50685;53.346;-6.296;2023-05-25T12:10:08;103074.19;;;26.22;23.98
64362;BME280;50685;53.346;-6.296;2023-05-25T12:12:48;103113.75;;;26.72;23.60
64362;BME280;50685;53.346;-6.296;2023-05-25T12:15:42;103087.00;;;26.61;23.16
64362;BME280;50685;53.346;-6.296;2023-05-25T12:18:47;103112.53;;;27.00;22.59
64362;BME280;50685;53.346;-6.296;2023-05-25T12:21:21;103099.00;;;26.78;23.14
64362;BME280;50685;53.346;-6.296;2023-05-25T12:23:47;103045.28;;;26.61;23.00
64362;BME280;50685;53.346;-6.296;2023-05-25T12:26:17;103072.72;;;26.56;22.95
64362;BME280;50685;53.346;-6.296;2023-05-25T12:29:08;103106.97;;;26.83;23.17
64362;BME280;50685;53.346;-6.296;2023-05-25T12:31:40;103042.03;;;26.53;22.52
64362;BME280;50685;53.346;-6.296;2023-05-25T12:34:41;103077.38;;;26.75;22.98
64362;BME280;50685;53.346;-6.296;2023-05-25T12:37:20;103111.31;;;26.66;23.64
64362;BME280;50685;53.346;-6.296;2023-05-25T12:39:49;103111.88;;;26.52;24.03
64362;BME280;50685;53.346;-6.296;2023-05-25T12:42:25;103086.91;;;26.22;23.77
64362;BME280;50685;53.346;-6.296;2023-05-25T12:45:06;103113.47;;;26.58;23.15
64362;BME280;50685;53.346;-6.296;2023-05-25T12:47:47;103090.63;;;26.83;22.73
64362;BME280;50685;53.346;-6.296;2023-05-25T12:50:21;103059.59;;;27.06;22.67
64362;BME280;50685;53.346;-6.296;2023-05-25T12:53:02;103117.63;;;27.67;22.09
64362;BME280;50685;53.346;-6.296;2023-05-25T12:56:11;103055.19;;;27.03;26.99
64362;BME280;50685;53.346;-6.296;2023-05-25T12:58:43;103059.47;;;27.09;26.88
64362;BME280;50685;53.346;-6.296;2023-05-25T13:04:04;103085.72;;;26.91;27.86
64362;BME280;50685;53.346;-6.296;2023-05-25T13:06:32;103088.72;;;26.85;28.21
64362;BME280;50685;53.346;-6.296;2023-05-25T13:09:03;103104.78;;;26.91;28.58
64362;BME280;50685;53.346;-6.296;2023-05-25T13:11:29;103112.78;;;26.94;28.40
64362;BME280;50685;53.346;-6.296;2023-05-25T13:13:56;103074.97;;;26.67;28.61
64362;BME280;50685;53.346;-6.296;2023-05-25T13:16:22;103090.59;;;26.41;29.90
64362;BME280;50685;53.346;-6.296;2023-05-25T13:18:49;103083.94;;;26.06;30.60
64362;BME280;50685;53.346;-6.296;2023-05-25T13:21:18;103088.59;;;25.58;31.50
64362;BME280;50685;53.346;-6.296;2023-05-25T13:23:43;103098.81;;;25.51;31.80
64362;BME280;50685;53.346;-6.296;2023-05-25T13:26:09;103106.56;;;25.37;31.74
64362;BME280;50685;53.346;-6.296;2023-05-25T13:28:35;103122.94;;;25.11;32.12
64362;BME280;50685;53.346;-6.296;2023-05-25T13:31:00;103083.44;;;24.77;32.21
64362;BME280;50685;53.346;-6.296;2023-05-25T13:33:26;103112.41;;;25.02;32.49
64362;BME280;50685;53.346;-6.296;2023-05-25T13:35:54;103085.75;;;24.63;32.47
64362;BME280;50685;53.346;-6.296;2023-05-25T13:38:23;103113.44;;;24.74;32.36
64362;BME280;50685;53.346;-6.296;2023-05-25T13:40:49;103074.28;;;24.54;32.71
64362;BME280;50685;53.346;-6.296;2023-05-25T13:43:15;103101.75;;;24.72;32.76
64362;BME280;50685;53.346;-6.296;2023-05-25T13:45:40;103118.09;;;24.70;32.97
64362;BME280;50685;53.346;-6.296;2023-05-25T13:48:06;103090.34;;;24.61;32.84
64362;BME280;50685;53.346;-6.296;2023-05-25T13:50:32;103121.59;;;24.73;32.03
64362;BME280;50685;53.346;-6.296;2023-05-25T13:53:00;103115.03;;;24.80;32.22
64362;BME280;50685;53.346;-6.296;2023-05-25T13:55:25;103075.06;;;24.58;32.36
64362;BME280;50685;53.346;-6.296;2023-05-25T13:57:51;103111.38;;;24.81;31.55
64362;BME280;50685;53.346;-6.296;2023-05-25T14:00:17;103104.06;;;24.83;32.00
64362;BME280;50685;53.346;-6.296;2023-05-25T14:02:42;103080.91;;;24.73;32.04
64362;BME280;50685;53.346;-6.296;2023-05-25T14:05:08;103108.38;;;24.89;31.90
64362;BME280;50685;53.346;-6.296;2023-05-25T14:07:34;103105.88;;;24.82;32.26
64362;BME280;50685;53.346;-6.296;2023-05-25T14:10:00;103083.56;;;24.74;32.88
64362;BME280;50685;53.346;-6.296;2023-05-25T14:12:25;103084.72;;;24.92;32.16
64362;BME280;50685;53.346;-6.296;2023-05-25T14:14:53;103067.63;;;24.90;32.05
64362;BME280;50685;53.346;-6.296;2023-05-25T14:17:20;103097.78;;;25.30;32.52
64362;BME280;50685;53.346;-6.296;2023-05-25T14:19:45;103053.91;;;24.93;32.61
64362;BME280;50685;53.346;-6.296;2023-05-25T14:22:11;103084.38;;;25.01;32.48
64362;BME280;50685;53.346;-6.296;2023-05-25T14:24:36;103102.09;;;25.12;32.48
64362;BME280;50685;53.346;-6.296;2023-05-25T14:27:01;103057.53;;;24.94;32.07
64362;BME280;50685;53.346;-6.296;2023-05-25T14:29:29;103045.66;;;24.96;32.33
64362;BME280;50685;53.346;-6.296;2023-05-25T14:31:55;103071.09;;;25.17;31.86
64362;BME280;50685;53.346;-6.296;2023-05-25T14:36:56;103055.31;;;24.80;33.18
64362;BME280;50685;53.346;-6.296;2023-05-25T14:39:28;103073.53;;;25.01;33.38
64362;BME280;50685;53.346;-6.296;2023-05-25T14:41:56;103057.53;;;24.94;33.03
64362;BME280;50685;53.346;-6.296;2023-05-25T14:44:26;103086.47;;;25.18;32.64
64362;BME280;50685;53.346;-6.296;2023-05-25T14:46:52;103067.88;;;24.82;33.62
64362;BME280;50685;53.346;-6.296;2023-05-25T14:49:18;103097.56;;;25.12;33.13
64362;BME280;50685;53.346;-6.296;2023-05-25T14:51:43;103062.56;;;24.79;33.00
64362;BME280;50685;53.346;-6.296;2023-05-25T14:54:09;103061.63;;;24.80;32.66
64362;BME280;50685;53.346;-6.296;2023-05-25T14:56:37;103073.38;;;24.81;32.93
64362;BME280;50685;53.346;-6.296;2023-05-25T14:59:03;103095.56;;;24.92;32.43
64362;BME280;50685;53.346;-6.296;2023-05-25T15:01:28;103057.47;;;24.70;32.46
64362;BME280;50685;53.346;-6.296;2023-05-25T15:03:54;103089.13;;;24.95;32.74
64362;BME280;50685;53.346;-6.296;2023-05-25T15:06:19;103090.22;;;25.14;32.29
64362;BME280;50685;53.346;-6.296;2023-05-25T15:08:45;103062.88;;;24.95;32.63
64362;BME280;50685;53.346;-6.296;2023-05-25T15:11:10;103061.66;;;24.79;33.00
64362;BME280;50685;53.346;-6.296;2023-05-25T15:13:36;103091.75;;;24.73;33.20
64362;BME280;50685;53.346;-6.296;2023-05-25T15:16:04;103097.94;;;24.51;33.54
64362;BME280;50685;53.346;-6.296;2023-05-25T15:18:30;103063.91;;;24.14;33.61
64362;BME280;50685;53.346;-6.296;2023-05-25T15:20:55;103059.09;;;23.97;34.05